sensor_id;sensor_type;location;lat;lon;timestamp;pressure;altitude;pressure_sealevel;temperature;humidity
62634;BME280;48704;50.534;6.442;2023-04-26T00:00:12;95672.13;;;0.63;100.00
62634;BME280;48704;50.534;6.442;2023-04-26T00:02:38;95669.66;;;0.73;100.00
62634;BME280;48704;50.534;6.442;2023-04-26T00:05:04;95671.53;;;0.79;100.00
62634;BME280;48704;50.534;6.442;2023-04-26T00:07:30;95663.78;;;1.01;100.00
62634;BME280;48704;50.534;6.442;2023-04-26T00:09:56;95662.22;;;1.00;100.00
62634;BME280;48704;50.534;6.442;2023-04-26T00:12:21;95660.97;;;0.78;100.00
62634;BME280;48704;50.534;6.442;2023-04-26T00:14:47;95661.78;;;0.75;100.00
62634;BME280;48704;50.534;6.442;2023-04-26T00:17:12;95661.28;;;0.53;100.00
62634;BME280;48704;50.534;6.442;2023-04-26T00:19:37;95657.44;;;0.47;100.00
62634;BME280;48704;50.534;6.442;2023-04-26T00:22:03;95656.13;;;0.28;100.00
62634;BME280;48704;50.534;6.442;2023-04-26T00:24:30;95652.78;;;0.10;100.00
62634;BME280;48704;50.534;6.442;2023-04-26T00:26:55;95657.81;;;0.15;100.00
62634;BME280;48704;50.534;6.442;2023-04-26T00:29:21;95646.53;;;0.09;100.00
62634;BME280;48704;50.534;6.442;2023-04-26T00:31:46;95657.09;;;0.11;100.00
62634;BME280;48704;50.534;6.442;2023-04-26T00:34:12;95653.19;;;0.08;100.00
62634;BME280;48704;50.534;6.442;2023-04-26T00:36:37;95642.38;;;-0.03;100.00
62634;BME280;48704;50.534;6.442;2023-04-26T00:39:02;95653.44;;;-0.13;100.00
62634;BME280;48704;50.534;6.442;2023-04-26T00:41:28;95652.28;;;-0.16;100.00
62634;BME280;48704;50.534;6.442;2023-04-26T00:43:53;95647.16;;;-0.14;100.00
62634;BME280;48704;50.534;6.442;2023-04-26T00:46:19;95653.47;;;-0.17;100.00
62634;BME280;48704;50.534;6.442;2023-04-26T00:48:46;95647.06;;;-0.03;100.00
62634;BME280;48704;50.534;6.442;2023-04-26T00:51:11;95648.22;;;-0.01;100.00
62634;BME280;48704;50.534;6.442;2023-04-26T00:53:37;95640.28;;;0.09;100.00
62634;BME280;48704;50.534;6.442;2023-04-26T00:56:05;95647.78;;;0.01;100.00
62634;BME280;48704;50.534;6.442;2023-04-26T00:58:31;95637.53;;;0.09;100.00
62634;BME280;48704;50.534;6.442;2023-04-26T01:00:56;95643.94;;;-0.02;100.00
62634;BME280;48704;50.534;6.442;2023-04-26T01:03:22;95644.84;;;-0.15;100.00
62634;BME280;48704;50.534;6.442;2023-04-26T01:05:47;95642.97;;;-0.25;100.00
62634;BME280;48704;50.534;6.442;2023-04-26T01:08:13;95641.69;;;-0.14;100.00
62634;BME280;48704;50.534;6.442;2023-04-26T01:10:41;95638.50;;;-0.09;100.00
62634;BME280;48704;50.534;6.442;2023-04-26T01:13:06;95644.13;;;0.15;100.00
62634;BME280;48704;50.534;6.442;2023-04-26T01:15:32;95636.69;;;0.15;100.00
62634;BME280;48704;50.534;6.442;2023-04-26T01:17:59;95639.69;;;0.28;100.00
62634;BME280;48704;50.534;6.442;2023-04-26T01:20:25;95645.59;;;0.23;100.00
62634;BME280;48704;50.534;6.442;2023-04-26T01:22:51;95646.13;;;0.11;100.00
62634;BME280;48704;50.534;6.442;2023-04-26T01:25:16;95646.88;;;0.15;100.00
62634;BME280;48704;50.534;6.442;2023-04-26T01:27:42;95641.69;;;0.24;100.00
62634;BME280;48704;50.534;6.442;2023-04-26T01:30:08;95643.69;;;0.20;100.00
62634;BME280;48704;50.534;6.442;2023-04-26T01:32:34;95649.03;;;-0.04;100.00
62634;BME280;48704;50.534;6.442;2023-04-26T01:34:59;95644.56;;;0.10;100.00
62634;BME280;48704;50.534;6.442;2023-04-26T01:37:25;95645.16;;;0.28;100.00
62634;BME280;48704;50.534;6.442;2023-04-26T01:39:50;95633.75;;;0.33;100.00
62634;BME280;48704;50.534;6.442;2023-04-26T01:42:16;95641.16;;;0.36;100.00
62634;BME280;48704;50.534;6.442;2023-04-26T01:44:41;95640.53;;;0.21;100.00
62634;BME280;48704;50.534;6.442;2023-04-26T01:47:06;95644.59;;;0.06;100.00
62634;BME280;48704;50.534;6.442;2023-04-26T01:49:31;95649.28;;;-0.32;100.00
62634;BME280;48704;50.534;6.442;2023-04-26T01:51:57;95645.81;;;-0.36;100.00
62634;BME280;48704;50.534;6.442;2023-04-26T01:54:23;95650.28;;;-0.12;100.00
62634;BME280;48704;50.534;6.442;2023-04-26T01:56:48;95649.22;;;0.13;100.00
62634;BME280;48704;50.534;6.442;2023-04-26T01:59:13;95646.03;;;0.18;100.00
62634;BME280;48704;50.534;6.442;2023-04-26T02:01:41;95654.22;;;0.21;100.00
62634;BME280;48704;50.534;6.442;2023-04-26T02:04:07;95653.81;;;0.23;100.00
62634;BME280;48704;50.534;6.442;2023-04-26T02:06:32;95648.72;;;0.25;100.00
62634;BME280;48704;50.534;6.442;2023-04-26T02:08:57;95647.16;;;0.24;100.00
62634;BME280;48704;50.534;6.442;2023-04-26T02:11:23;95645.97;;;0.25;100.00
62634;BME280;48704;50.534;6.442;2023-04-26T02:13:48;95635.75;;;0.29;100.00
62634;BME280;48704;50.534;6.442;2023-04-26T02:16:13;95642.28;;;0.05;100.00
62634;BME280;48704;50.534;6.442;2023-04-26T02:18:40;95636.16;;;-0.07;100.00
62634;BME280;48704;50.534;6.442;2023-04-26T02:21:10;95641.72;;;-0.17;100.00
62634;BME280;48704;50.534;6.442;2023-04-26T02:23:36;95634.53;;;-0.01;100.00
62634;BME280;48704;50.534;6.442;2023-04-26T02:26:01;95635.16;;;0.11;100.00
62634;BME280;48704;50.534;6.442;2023-04-26T02:28:27;95641.81;;;0.10;100.00
62634;BME280;48704;50.534;6.442;2023-04-26T02:30:52;95636.78;;;0.05;100.00
62634;BME280;48704;50.534;6.442;2023-04-26T02:33:17;95637.97;;;0.04;100.00
62634;BME280;48704;50.534;6.442;2023-04-26T02:35:43;95630.53;;;0.04;100.00
62634;BME280;48704;50.534;6.442;2023-04-26T02:38:08;95632.06;;;0.09;100.00
62634;BME280;48704;50.534;6.442;2023-04-26T02:40:33;95633.59;;;0.10;100.00
62634;BME280;48704;50.534;6.442;2023-04-26T02:42:59;95630.50;;;0.08;100.00
62634;BME280;48704;50.534;6.442;2023-04-26T02:45:24;95635.34;;;-0.04;100.00
62634;BME280;48704;50.534;6.442;2023-04-26T02:47:49;95629.22;;;-0.59;100.00
62634;BME280;48704;50.534;6.442;2023-04-26T02:50:15;95633.69;;;-0.80;100.00
62634;BME280;48704;50.534;6.442;2023-04-26T02:52:40;95632.94;;;-0.84;100.00
62634;BME280;48704;50.534;6.442;2023-04-26T02:55:06;95625.69;;;-1.08;100.00
62634;BME280;48704;50.534;6.442;2023-04-26T02:57:31;95621.97;;;-1.36;100.00
62634;BME280;48704;50.534;6.442;2023-04-26T02:59:57;95619.66;;;-1.41;100.00
62634;BME280;48704;50.534;6.442;2023-04-26T03:02:23;95614.56;;;-1.39;100.00
62634;BME280;48704;50.534;6.442;2023-04-26T03:04:49;95618.19;;;-1.59;100.00
62634;BME280;48704;50.534;6.442;2023-04-26T03:07:14;95616.91;;;-1.41;100.00
62634;BME280;48704;50.534;6.442;2023-04-26T03:09:40;95613.41;;;-0.86;100.00
62634;BME280;48704;50.534;6.442;2023-04-26T03:12:06;95611.59;;;-1.03;100.00
62634;BME280;48704;50.534;6.442;2023-04-26T03:14:32;95605.44;;;-1.14;100.00
62634;BME280;48704;50.534;6.442;2023-04-26T03:16:58;95611.06;;;-1.39;100.00
62634;BME280;48704;50.534;6.442;2023-04-26T03:19:23;95606.09;;;-1.55;100.00
62634;BME280;48704;50.534;6.442;2023-04-26T03:21:48;95594.34;;;-1.52;100.00
62634;BME280;48704;50.534;6.442;2023-04-26T03:24:14;95594.34;;;-1.52;100.00
62634;BME280;48704;50.534;6.442;2023-04-26T03:26:39;95592.84;;;-1.60;100.00
62634;BME280;48704;50.534;6.442;2023-04-26T03:29:04;95588.53;;;-1.61;100.00
62634;BME280;48704;50.534;6.442;2023-04-26T03:31:30;95592.44;;;-1.62;100.00
62634;BME280;48704;50.534;6.442;2023-04-26T03:33:56;95590.16;;;-1.74;100.00
62634;BME280;48704;50.534;6.442;2023-04-26T03:36:21;95594.84;;;-1.75;100.00
62634;BME280;48704;50.534;6.442;2023-04-26T03:38:46;95596.38;;;-1.66;100.00
62634;BME280;48704;50.534;6.442;2023-04-26T03:41:12;95598.72;;;-1.06;100.00
62634;BME280;48704;50.534;6.442;2023-04-26T03:43:37;95608.31;;;-0.84;100.00
62634;BME280;48704;50.534;6.442;2023-04-26T03:46:03;95614.69;;;-1.60;100.00
62634;BME280;48704;50.534;6.442;2023-04-26T03:48:28;95603.75;;;-1.60;100.00
62634;BME280;48704;50.534;6.442;2023-04-26T03:50:54;95605.78;;;-1.78;100.00
62634;BME280;48704;50.534;6.442;2023-04-26T03:53:19;95607.81;;;-1.89;100.00
62634;BME280;48704;50.534;6.442;2023-04-26T03:55:44;95603.00;;;-1.64;100.00
62634;BME280;48704;50.534;6.442;2023-04-26T03:58:10;95603.91;;;-1.88;100.00
62634;BME280;48704;50.534;6.442;2023-04-26T04:00:39;95607.47;;;-2.06;100.00
62634;BME280;48704;50.534;6.442;2023-04-26T04:03:08;95597.75;;;-2.14;100.00
62634;BME280;48704;50.534;6.442;2023-04-26T04:05:33;95600.09;;;-2.16;100.00
62634;BME280;48704;50.534;6.442;2023-04-26T04:07:58;95600.78;;;-1.87;100.00
62634;BME280;48704;50.534;6.442;2023-04-26T04:10:24;95604.75;;;-2.06;100.00
62634;BME280;48704;50.534;6.442;2023-04-26T04:12:50;95610.50;;;-1.82;100.00
62634;BME280;48704;50.534;6.442;2023-04-26T04:15:16;95604.56;;;-1.66;100.00
62634;BME280;48704;50.534;6.442;2023-04-26T04:17:42;95610.06;;;-1.70;100.00
62634;BME280;48704;50.534;6.442;2023-04-26T04:20:08;95614.06;;;-1.92;100.00
62634;BME280;48704;50.534;6.442;2023-04-26T04:22:34;95610.25;;;-2.20;100.00
62634;BME280;48704;50.534;6.442;2023-04-26T04:24:59;95601.63;;;-2.08;100.00
62634;BME280;48704;50.534;6.442;2023-04-26T04:27:27;95607.06;;;-2.00;100.00
62634;BME280;48704;50.534;6.442;2023-04-26T04:29:52;95613.28;;;-1.93;100.00
62634;BME280;48704;50.534;6.442;2023-04-26T04:32:19;95607.09;;;-2.08;100.00
62634;BME280;48704;50.534;6.442;2023-04-26T04:34:45;95618.72;;;-1.89;100.00
62634;BME280;48704;50.534;6.442;2023-04-26T04:37:10;95621.50;;;-1.96;100.00
62634;BME280;48704;50.534;6.442;2023-04-26T04:39:36;95615.94;;;-1.82;100.00
62634;BME280;48704;50.534;6.442;2023-04-26T04:42:02;95619.47;;;-1.82;100.00
62634;BME280;48704;50.534;6.442;2023-04-26T04:44:27;95613.97;;;-1.71;100.00
62634;BME280;48704;50.534;6.442;2023-04-26T04:46:53;95617.09;;;-1.76;100.00
62634;BME280;48704;50.534;6.442;2023-04-26T04:49:18;95623.34;;;-1.79;100.00
62634;BME280;48704;50.534;6.442;2023-04-26T04:51:44;95620.81;;;-1.42;100.00
62634;BME280;48704;50.534;6.442;2023-04-26T04:54:11;95627.09;;;-1.45;100.00
62634;BME280;48704;50.534;6.442;2023-04-26T04:56:36;95627.94;;;-1.55;100.00
62634;BME280;48704;50.534;6.442;2023-04-26T04:59:02;95624.81;;;-1.57;100.00
62634;BME280;48704;50.534;6.442;2023-04-26T05:01:29;95634.16;;;-1.51;100.00
62634;BME280;48704;50.534;6.442;2023-04-26T05:03:54;95635.72;;;-1.50;100.00
62634;BME280;48704;50.534;6.442;2023-04-26T05:06:19;95642.69;;;-1.42;100.00
62634;BME280;48704;50.534;6.442;2023-04-26T05:08:45;95635.13;;;-1.16;100.00
62634;BME280;48704;50.534;6.442;2023-04-26T05:11:11;95646.50;;;-1.21;100.00
62634;BME280;48704;50.534;6.442;2023-04-26T05:13:36;95636.78;;;-1.33;100.00
62634;BME280;48704;50.534;6.442;2023-04-26T05:16:01;95648.88;;;-1.30;100.00
62634;BME280;48704;50.534;6.442;2023-04-26T05:18:27;95648.13;;;-1.35;100.00
62634;BME280;48704;50.534;6.442;2023-04-26T05:20:52;95647.28;;;-1.24;100.00
62634;BME280;48704;50.534;6.442;2023-04-26T05:23:18;95648.34;;;-1.08;100.00
62634;BME280;48704;50.534;6.442;2023-04-26T05:25:43;95655.34;;;-1.03;100.00
62634;BME280;48704;50.534;6.442;2023-04-26T05:28:08;95657.56;;;-0.84;100.00
62634;BME280;48704;50.534;6.442;2023-04-26T05:30:37;95658.00;;;-0.92;100.00
62634;BME280;48704;50.534;6.442;2023-04-26T05:33:02;95662.78;;;-1.07;100.00
62634;BME280;48704;50.534;6.442;2023-04-26T05:35:27;95663.03;;;-0.80;100.00
62634;BME280;48704;50.534;6.442;2023-04-26T05:37:53;95660.31;;;-0.84;100.00
62634;BME280;48704;50.534;6.442;2023-04-26T05:40:18;95659.13;;;-0.83;100.00
62634;BME280;48704;50.534;6.442;2023-04-26T05:42:43;95659.13;;;-0.83;100.00
62634;BME280;48704;50.534;6.442;2023-04-26T05:45:09;95671.22;;;-0.80;100.00
62634;BME280;48704;50.534;6.442;2023-04-26T05:47:35;95671.19;;;-0.32;100.00
62634;BME280;48704;50.534;6.442;2023-04-26T05:50:00;95670.44;;;-0.77;100.00
62634;BME280;48704;50.534;6.442;2023-04-26T05:52:26;95666.28;;;-0.48;100.00
62634;BME280;48704;50.534;6.442;2023-04-26T05:54:51;95668.56;;;-0.39;100.00
62634;BME280;48704;50.534;6.442;2023-04-26T05:57:16;95667.59;;;-0.22;100.00
62634;BME280;48704;50.534;6.442;2023-04-26T05:59:43;95662.84;;;-0.18;100.00
62634;BME280;48704;50.534;6.442;2023-04-26T06:02:08;95665.72;;;0.09;100.00
62634;BME280;48704;50.534;6.442;2023-04-26T06:04:33;95673.47;;;0.48;100.00
62634;BME280;48704;50.534;6.442;2023-04-26T06:06:59;95679.38;;;0.47;100.00
62634;BME280;48704;50.534;6.442;2023-04-26T06:09:25;95676.31;;;0.41;100.00
62634;BME280;48704;50.534;6.442;2023-04-26T06:11:50;95678.59;;;0.77;100.00
62634;BME280;48704;50.534;6.442;2023-04-26T06:14:15;95680.53;;;0.80;100.00
62634;BME280;48704;50.534;6.442;2023-04-26T06:16:41;95689.66;;;1.00;100.00
62634;BME280;48704;50.534;6.442;2023-04-26T06:19:06;95691.78;;;1.16;100.00
62634;BME280;48704;50.534;6.442;2023-04-26T06:21:32;95687.28;;;1.02;100.00
62634;BME280;48704;50.534;6.442;2023-04-26T06:23:57;95680.75;;;1.19;100.00
62634;BME280;48704;50.534;6.442;2023-04-26T06:26:22;95683.44;;;1.50;100.00
62634;BME280;48704;50.534;6.442;2023-04-26T06:28:47;95691.91;;;1.59;100.00
62634;BME280;48704;50.534;6.442;2023-04-26T06:31:13;95693.25;;;1.74;100.00
62634;BME280;48704;50.534;6.442;2023-04-26T06:33:38;95684.75;;;1.65;100.00
62634;BME280;48704;50.534;6.442;2023-04-26T06:36:04;95686.66;;;1.91;100.00
62634;BME280;48704;50.534;6.442;2023-04-26T06:38:31;95676.97;;;2.07;100.00
62634;BME280;48704;50.534;6.442;2023-04-26T06:40:57;95686.19;;;2.20;100.00
62634;BME280;48704;50.534;6.442;2023-04-26T06:43:25;95692.63;;;2.10;100.00
62634;BME280;48704;50.534;6.442;2023-04-26T06:45:51;95695.81;;;2.28;100.00
62634;BME280;48704;50.534;6.442;2023-04-26T06:48:17;95685.81;;;2.38;100.00
62634;BME280;48704;50.534;6.442;2023-04-26T06:50:42;95691.50;;;2.50;100.00
62634;BME280;48704;50.534;6.442;2023-04-26T06:53:07;95694.38;;;2.43;100.00
62634;BME280;48704;50.534;6.442;2023-04-26T06:55:33;95686.16;;;2.99;100.00
62634;BME280;48704;50.534;6.442;2023-04-26T06:57:59;95684.84;;;3.23;100.00
62634;BME280;48704;50.534;6.442;2023-04-26T07:00:24;95690.19;;;3.30;100.00
62634;BME280;48704;50.534;6.442;2023-04-26T07:02:50;95688.66;;;3.29;100.00
62634;BME280;48704;50.534;6.442;2023-04-26T07:05:15;95687.94;;;3.25;100.00
62634;BME280;48704;50.534;6.442;2023-04-26T07:07:40;95688.56;;;3.33;100.00
62634;BME280;48704;50.534;6.442;2023-04-26T07:10:06;95684.53;;;3.54;100.00
62634;BME280;48704;50.534;6.442;2023-04-26T07:12:32;95696.00;;;3.68;100.00
62634;BME280;48704;50.534;6.442;2023-04-26T07:14:57;95696.34;;;3.71;100.00
62634;BME280;48704;50.534;6.442;2023-04-26T07:17:22;95684.88;;;3.88;100.00
62634;BME280;48704;50.534;6.442;2023-04-26T07:19:48;95689.84;;;4.10;100.00
62634;BME280;48704;50.534;6.442;2023-04-26T07:22:13;95691.47;;;4.23;100.00
62634;BME280;48704;50.534;6.442;2023-04-26T07:24:38;95693.34;;;4.26;100.00
62634;BME280;48704;50.534;6.442;2023-04-26T07:27:04;95689.66;;;4.46;100.00
62634;BME280;48704;50.534;6.442;2023-04-26T07:29:29;95696.66;;;4.79;100.00
62634;BME280;48704;50.534;6.442;2023-04-26T07:31:54;95687.78;;;5.13;100.00
62634;BME280;48704;50.534;6.442;2023-04-26T07:34:21;95694.88;;;5.40;100.00
62634;BME280;48704;50.534;6.442;2023-04-26T07:36:46;95696.34;;;4.90;100.00
62634;BME280;48704;50.534;6.442;2023-04-26T07:39:11;95693.75;;;4.70;100.00
62634;BME280;48704;50.534;6.442;2023-04-26T07:41:37;95694.78;;;4.89;100.00
62634;BME280;48704;50.534;6.442;2023-04-26T07:44:02;95697.72;;;5.23;100.00
62634;BME280;48704;50.534;6.442;2023-04-26T07:46:28;95701.66;;;4.97;100.00
62634;BME280;48704;50.534;6.442;2023-04-26T07:48:53;95703.78;;;4.35;100.00
62634;BME280;48704;50.534;6.442;2023-04-26T07:51:18;95705.66;;;4.38;100.00
62634;BME280;48704;50.534;6.442;2023-04-26T07:53:44;95692.63;;;3.61;100.00
62634;BME280;48704;50.534;6.442;2023-04-26T07:56:09;95692.09;;;3.50;100.00
62634;BME280;48704;50.534;6.442;2023-04-26T07:58:36;95691.00;;;3.63;100.00
62634;BME280;48704;50.534;6.442;2023-04-26T08:01:03;95691.44;;;3.62;100.00
62634;BME280;48704;50.534;6.442;2023-04-26T08:03:28;95691.41;;;3.46;100.00
62634;BME280;48704;50.534;6.442;2023-04-26T08:05:53;95694.16;;;4.11;100.00
62634;BME280;48704;50.534;6.442;2023-04-26T08:08:19;95679.78;;;3.87;100.00
62634;BME280;48704;50.534;6.442;2023-04-26T08:10:46;95671.94;;;4.01;100.00
62634;BME280;48704;50.534;6.442;2023-04-26T08:13:11;95671.97;;;4.59;100.00
62634;BME280;48704;50.534;6.442;2023-04-26T08:15:36;95675.13;;;4.87;100.00
62634;BME280;48704;50.534;6.442;2023-04-26T08:18:02;95672.31;;;5.28;100.00
62634;BME280;48704;50.534;6.442;2023-04-26T08:20:27;95672.94;;;4.82;100.00
62634;BME280;48704;50.534;6.442;2023-04-26T08:22:56;95666.63;;;4.52;100.00
62634;BME280;48704;50.534;6.442;2023-04-26T08:25:22;95666.78;;;4.61;100.00
62634;BME280;48704;50.534;6.442;2023-04-26T08:27:48;95669.75;;;4.25;100.00
62634;BME280;48704;50.534;6.442;2023-04-26T08:30:13;95679.03;;;4.60;100.00
62634;BME280;48704;50.534;6.442;2023-04-26T08:32:38;95685.56;;;4.66;100.00
62634;BME280;48704;50.534;6.442;2023-04-26T08:35:05;95694.63;;;5.21;100.00
62634;BME280;48704;50.534;6.442;2023-04-26T08:37:30;95695.09;;;5.32;100.00
62634;BME280;48704;50.534;6.442;2023-04-26T08:39:56;95688.81;;;5.45;100.00
62634;BME280;48704;50.534;6.442;2023-04-26T08:42:25;95693.44;;;5.73;100.00
62634;BME280;48704;50.534;6.442;2023-04-26T08:44:51;95690.66;;;5.60;100.00
62634;BME280;48704;50.534;6.442;2023-04-26T08:49:46;95691.22;;;5.68;99.96
62634;BME280;48704;50.534;6.442;2023-04-26T08:52:14;95683.53;;;4.96;100.00
62634;BME280;48704;50.534;6.442;2023-04-26T08:54:41;95695.75;;;5.62;98.39
62634;BME280;48704;50.534;6.442;2023-04-26T08:57:07;95697.66;;;5.90;98.29
62634;BME280;48704;50.534;6.442;2023-04-26T08:59:37;95691.09;;;5.59;99.83
62634;BME280;48704;50.534;6.442;2023-04-26T09:02:06;95694.59;;;6.23;95.13
62634;BME280;48704;50.534;6.442;2023-04-26T09:04:32;95691.94;;;6.76;90.90
62634;BME280;48704;50.534;6.442;2023-04-26T09:07:00;95685.41;;;7.04;89.26
62634;BME280;48704;50.534;6.442;2023-04-26T09:09:34;95678.50;;;6.87;86.93
62634;BME280;48704;50.534;6.442;2023-04-26T09:12:03;95681.25;;;6.43;92.27
62634;BME280;48704;50.534;6.442;2023-04-26T09:14:29;95684.53;;;6.72;88.40
62634;BME280;48704;50.534;6.442;2023-04-26T09:16:54;95681.19;;;6.78;85.25
62634;BME280;48704;50.534;6.442;2023-04-26T09:19:39;95677.66;;;6.77;85.04
62634;BME280;48704;50.534;6.442;2023-04-26T09:22:07;95673.69;;;6.22;87.08
62634;BME280;48704;50.534;6.442;2023-04-26T09:24:49;95678.19;;;5.94;85.98
62634;BME280;48704;50.534;6.442;2023-04-26T09:27:16;95667.88;;;5.94;92.42
62634;BME280;48704;50.534;6.442;2023-04-26T09:29:57;95672.91;;;6.21;88.70
62634;BME280;48704;50.534;6.442;2023-04-26T09:32:23;95680.63;;;6.83;84.90
62634;BME280;48704;50.534;6.442;2023-04-26T09:34:49;95687.44;;;5.62;84.70
62634;BME280;48704;50.534;6.442;2023-04-26T09:37:15;95678.47;;;6.09;87.30
62634;BME280;48704;50.534;6.442;2023-04-26T09:39:41;95679.44;;;6.15;88.13
62634;BME280;48704;50.534;6.442;2023-04-26T09:42:07;95668.00;;;6.82;80.81
62634;BME280;48704;50.534;6.442;2023-04-26T09:44:34;95667.41;;;6.43;82.45
62634;BME280;48704;50.534;6.442;2023-04-26T09:47:10;95667.81;;;6.54;79.22
62634;BME280;48704;50.534;6.442;2023-04-26T09:49:49;95663.69;;;6.81;78.57
62634;BME280;48704;50.534;6.442;2023-04-26T09:52:17;95661.63;;;6.94;76.28
62634;BME280;48704;50.534;6.442;2023-04-26T09:57:09;95663.97;;;7.26;78.98
62634;BME280;48704;50.534;6.442;2023-04-26T09:59:39;95653.34;;;8.32;70.23
62634;BME280;48704;50.534;6.442;2023-04-26T10:02:09;95654.22;;;6.91;78.71
62634;BME280;48704;50.534;6.442;2023-04-26T10:04:37;95660.00;;;8.35;71.36
62634;BME280;48704;50.534;6.442;2023-04-26T10:07:03;95652.91;;;8.89;63.98
62634;BME280;48704;50.534;6.442;2023-04-26T10:09:29;95644.28;;;9.29;65.09
62634;BME280;48704;50.534;6.442;2023-04-26T10:11:55;95638.56;;;9.32;60.98
62634;BME280;48704;50.534;6.442;2023-04-26T10:14:22;95642.25;;;9.38;67.58
62634;BME280;48704;50.534;6.442;2023-04-26T10:16:48;95638.69;;;9.80;66.79
62634;BME280;48704;50.534;6.442;2023-04-26T10:19:13;95647.06;;;9.71;67.21
62634;BME280;48704;50.534;6.442;2023-04-26T10:21:40;95646.91;;;9.32;64.37
62634;BME280;48704;50.534;6.442;2023-04-26T10:24:07;95640.00;;;7.91;68.86
62634;BME280;48704;50.534;6.442;2023-04-26T10:29:13;95644.84;;;8.27;69.79
62634;BME280;48704;50.534;6.442;2023-04-26T10:34:28;95643.16;;;7.62;70.15
62634;BME280;48704;50.534;6.442;2023-04-26T10:37:14;95641.94;;;7.63;74.11
62634;BME280;48704;50.534;6.442;2023-04-26T10:39:42;95637.75;;;7.18;74.81
62634;BME280;48704;50.534;6.442;2023-04-26T10:42:17;95642.03;;;7.41;72.52
62634;BME280;48704;50.534;6.442;2023-04-26T10:44:51;95635.50;;;7.84;69.68
62634;BME280;48704;50.534;6.442;2023-04-26T10:47:30;95634.06;;;8.56;68.99
62634;BME280;48704;50.534;6.442;2023-04-26T10:50:05;95640.81;;;9.01;67.19
62634;BME280;48704;50.534;6.442;2023-04-26T10:52:32;95629.72;;;8.10;66.75
62634;BME280;48704;50.534;6.442;2023-04-26T10:54:59;95638.03;;;8.92;63.99
62634;BME280;48704;50.534;6.442;2023-04-26T10:57:50;95633.88;;;9.48;64.66
62634;BME280;48704;50.534;6.442;2023-04-26T11:03:02;95627.31;;;10.64;52.17
62634;BME280;48704;50.534;6.442;2023-04-26T11:05:38;95632.22;;;10.31;56.68
62634;BME280;48704;50.534;6.442;2023-04-26T11:08:06;95628.88;;;10.80;54.78
62634;BME280;48704;50.534;6.442;2023-04-26T11:10:36;95615.78;;;12.30;50.80
62634;BME280;48704;50.534;6.442;2023-04-26T11:13:02;95609.50;;;12.15;50.23
62634;BME280;48704;50.534;6.442;2023-04-26T11:15:29;95610.72;;;10.70;51.14
62634;BME280;48704;50.534;6.442;2023-04-26T11:17:55;95606.63;;;10.56;50.44
62634;BME280;48704;50.534;6.442;2023-04-26T11:20:20;95610.44;;;11.12;52.35
62634;BME280;48704;50.534;6.442;2023-04-26T11:22:46;95598.88;;;11.49;49.46
62634;BME280;48704;50.534;6.442;2023-04-26T11:25:12;95608.09;;;12.04;48.21
62634;BME280;48704;50.534;6.442;2023-04-26T11:27:38;95606.69;;;11.45;48.74
62634;BME280;48704;50.534;6.442;2023-04-26T11:30:04;95600.53;;;11.76;51.60
62634;BME280;48704;50.534;6.442;2023-04-26T11:32:29;95595.22;;;11.43;54.86
62634;BME280;48704;50.534;6.442;2023-04-26T11:34:59;95594.88;;;11.70;48.83
62634;BME280;48704;50.534;6.442;2023-04-26T11:37:24;95589.56;;;11.37;51.96
62634;BME280;48704;50.534;6.442;2023-04-26T11:39:50;95594.78;;;11.79;50.63
62634;BME280;48704;50.534;6.442;2023-04-26T11:42:16;95587.75;;;11.04;53.32
62634;BME280;48704;50.534;6.442;2023-04-26T11:44:41;95589.81;;;12.24;49.76
62634;BME280;48704;50.534;6.442;2023-04-26T11:47:07;95587.16;;;12.15;49.04
62634;BME280;48704;50.534;6.442;2023-04-26T11:49:36;95592.84;;;11.06;51.09
62634;BME280;48704;50.534;6.442;2023-04-26T11:52:03;95586.56;;;10.82;52.21
62634;BME280;48704;50.534;6.442;2023-04-26T11:54:32;95584.41;;;10.32;54.04
62634;BME280;48704;50.534;6.442;2023-04-26T11:56:59;95582.34;;;11.16;50.57
62634;BME280;48704;50.534;6.442;2023-04-26T11:59:24;95584.75;;;10.25;54.54
62634;BME280;48704;50.534;6.442;2023-04-26T12:01:50;95586.97;;;10.89;52.50
62634;BME280;48704;50.534;6.442;2023-04-26T12:04:17;95585.72;;;11.05;53.72
62634;BME280;48704;50.534;6.442;2023-04-26T12:06:43;95596.00;;;10.69;55.34
62634;BME280;48704;50.534;6.442;2023-04-26T12:09:09;95598.13;;;10.89;52.23
62634;BME280;48704;50.534;6.442;2023-04-26T12:11:47;95601.22;;;11.70;52.78
62634;BME280;48704;50.534;6.442;2023-04-26T12:14:15;95597.44;;;12.69;48.79
62634;BME280;48704;50.534;6.442;2023-04-26T12:16:41;95599.91;;;12.42;50.58
62634;BME280;48704;50.534;6.442;2023-04-26T12:19:07;95588.63;;;12.77;45.09
62634;BME280;48704;50.534;6.442;2023-04-26T12:21:40;95581.97;;;12.28;46.48
62634;BME280;48704;50.534;6.442;2023-04-26T12:24:06;95593.78;;;12.84;51.46
62634;BME280;48704;50.534;6.442;2023-04-26T12:26:42;95595.47;;;12.76;46.25
62634;BME280;48704;50.534;6.442;2023-04-26T12:29:08;95588.38;;;12.34;46.29
62634;BME280;48704;50.534;6.442;2023-04-26T12:31:34;95581.69;;;12.26;47.29
62634;BME280;48704;50.534;6.442;2023-04-26T12:33:59;95584.06;;;12.13;45.36
62634;BME280;48704;50.534;6.442;2023-04-26T12:36:24;95583.00;;;12.51;47.38
62634;BME280;48704;50.534;6.442;2023-04-26T12:38:50;95580.91;;;12.92;46.61
62634;BME280;48704;50.534;6.442;2023-04-26T12:41:15;95585.81;;;13.02;45.54
62634;BME280;48704;50.534;6.442;2023-04-26T12:43:41;95582.97;;;12.25;46.85
62634;BME280;48704;50.534;6.442;2023-04-26T12:46:06;95583.03;;;13.02;44.46
62634;BME280;48704;50.534;6.442;2023-04-26T12:48:31;95580.84;;;14.18;45.46
62634;BME280;48704;50.534;6.442;2023-04-26T12:50:57;95580.69;;;15.36;42.56
62634;BME280;48704;50.534;6.442;2023-04-26T12:53:22;95577.88;;;15.76;39.49
62634;BME280;48704;50.534;6.442;2023-04-26T12:55:47;95577.94;;;16.50;39.57
62634;BME280;48704;50.534;6.442;2023-04-26T12:58:12;95576.84;;;15.17;39.78
62634;BME280;48704;50.534;6.442;2023-04-26T13:00:38;95576.09;;;15.45;40.99
62634;BME280;48704;50.534;6.442;2023-04-26T13:03:03;95576.50;;;16.27;41.46
62634;BME280;48704;50.534;6.442;2023-04-26T13:05:28;95565.34;;;15.26;40.63